sensor_id;sensor_type;location;lat;lon;timestamp;pressure;altitude;pressure_sealevel;temperature;humidity
13407;BME280;6774;48.208;10.766;2023-05-29T00:02:13;95489.06;;;12.01;76.70
13407;BME280;6774;48.208;10.766;2023-05-29T00:04:40;95487.44;;;12.00;76.33
13407;BME280;6774;48.208;10.766;2023-05-29T00:07:08;95485.41;;;12.02;76.26
13407;BME280;6774;48.208;10.766;2023-05-29T00:09:36;95497.72;;;11.88;77.60
13407;BME280;6774;48.208;10.766;2023-05-29T00:12:06;95486.44;;;11.73;78.31
13407;BME280;6774;48.208;10.766;2023-05-29T00:14:33;95491.06;;;11.64;77.92
13407;BME280;6774;48.208;10.766;2023-05-29T00:17:01;95484.63;;;11.74;76.92
13407;BME280;6774;48.208;10.766;2023-05-29T00:19:29;95484.78;;;11.65;77.03
13407;BME280;6774;48.208;10.766;2023-05-29T00:21:57;95489.03;;;11.66;76.87
13407;BME280;6774;48.208;10.766;2023-05-29T00:24:25;95493.91;;;11.63;77.37
13407;BME280;6774;48.208;10.766;2023-05-29T00:26:52;95485.31;;;11.54;77.90
13407;BME280;6774;48.208;10.766;2023-05-29T00:29:21;95485.13;;;11.28;78.79
13407;BME280;6774;48.208;10.766;2023-05-29T00:31:49;95481.47;;;11.01;79.48
13407;BME280;6774;48.208;10.766;2023-05-29T00:34:22;95488.13;;;11.18;78.47
13407;BME280;6774;48.208;10.766;2023-05-29T00:36:50;95483.88;;;11.24;77.76
13407;BME280;6774;48.208;10.766;2023-05-29T00:39:19;95479.84;;;11.28;78.19
13407;BME280;6774;48.208;10.766;2023-05-29T00:41:47;95480.53;;;11.36;78.19
13407;BME280;6774;48.208;10.766;2023-05-29T00:44:17;95478.75;;;11.44;78.15
13407;BME280;6774;48.208;10.766;2023-05-29T00:46:47;95485.66;;;11.45;78.96
13407;BME280;6774;48.208;10.766;2023-05-29T00:49:16;95488.88;;;11.40;78.86
13407;BME280;6774;48.208;10.766;2023-05-29T00:51:44;95490.13;;;11.44;78.36
13407;BME280;6774;48.208;10.766;2023-05-29T00:54:14;95488.09;;;11.46;78.39
13407;BME280;6774;48.208;10.766;2023-05-29T00:56:45;95482.81;;;11.46;78.21
13407;BME280;6774;48.208;10.766;2023-05-29T00:59:13;95478.56;;;11.45;78.06
13407;BME280;6774;48.208;10.766;2023-05-29T01:01:42;95476.53;;;11.47;78.34
13407;BME280;6774;48.208;10.766;2023-05-29T01:04:12;95481.22;;;11.52;78.72
13407;BME280;6774;48.208;10.766;2023-05-29T01:06:41;95482.28;;;11.57;79.08
13407;BME280;6774;48.208;10.766;2023-05-29T01:09:10;95491.47;;;11.61;79.01
13407;BME280;6774;48.208;10.766;2023-05-29T01:11:45;95483.13;;;11.64;78.58
13407;BME280;6774;48.208;10.766;2023-05-29T01:14:25;95494.72;;;11.63;78.52
13407;BME280;6774;48.208;10.766;2023-05-29T01:17:01;95494.72;;;11.63;78.32
13407;BME280;6774;48.208;10.766;2023-05-29T01:19:46;95495.09;;;11.60;78.27
13407;BME280;6774;48.208;10.766;2023-05-29T01:22:27;95497.50;;;11.55;78.59
13407;BME280;6774;48.208;10.766;2023-05-29T01:25:11;95497.91;;;11.52;77.99
13407;BME280;6774;48.208;10.766;2023-05-29T01:27:43;95494.16;;;11.40;78.61
13407;BME280;6774;48.208;10.766;2023-05-29T01:30:15;95496.94;;;11.32;78.62
13407;BME280;6774;48.208;10.766;2023-05-29T01:32:43;95498.16;;;11.29;78.19
13407;BME280;6774;48.208;10.766;2023-05-29T01:35:13;95495.63;;;11.21;78.95
13407;BME280;6774;48.208;10.766;2023-05-29T01:37:41;95503.34;;;11.16;78.99
13407;BME280;6774;48.208;10.766;2023-05-29T01:40:09;95496.78;;;11.12;79.19
13407;BME280;6774;48.208;10.766;2023-05-29T01:42:37;95484.53;;;11.04;78.95
13407;BME280;6774;48.208;10.766;2023-05-29T01:45:07;95490.81;;;11.03;79.20
13407;BME280;6774;48.208;10.766;2023-05-29T01:47:35;95481.88;;;10.98;79.46
13407;BME280;6774;48.208;10.766;2023-05-29T01:50:04;95485.31;;;10.98;79.50
13407;BME280;6774;48.208;10.766;2023-05-29T01:52:34;95495.50;;;11.01;80.22
13407;BME280;6774;48.208;10.766;2023-05-29T01:55:02;95491.44;;;11.05;80.12
13407;BME280;6774;48.208;10.766;2023-05-29T01:57:30;95494.75;;;11.07;80.15
13407;BME280;6774;48.208;10.766;2023-05-29T01:59:58;95492.09;;;11.07;80.56
13407;BME280;6774;48.208;10.766;2023-05-29T02:02:27;95483.53;;;11.05;80.36
13407;BME280;6774;48.208;10.766;2023-05-29T02:04:55;95488.19;;;11.03;79.93
13407;BME280;6774;48.208;10.766;2023-05-29T02:07:23;95481.66;;;10.99;79.74
13407;BME280;6774;48.208;10.766;2023-05-29T02:09:50;95482.03;;;10.96;79.27
13407;BME280;6774;48.208;10.766;2023-05-29T02:12:18;95490.09;;;10.88;79.33
13407;BME280;6774;48.208;10.766;2023-05-29T02:14:46;95486.78;;;10.79;78.99
13407;BME280;6774;48.208;10.766;2023-05-29T02:17:14;95479.41;;;10.75;79.11
13407;BME280;6774;48.208;10.766;2023-05-29T02:19:44;95488.47;;;10.66;79.02
13407;BME280;6774;48.208;10.766;2023-05-29T02:22:12;95482.50;;;10.57;79.18
13407;BME280;6774;48.208;10.766;2023-05-29T02:24:40;95486.44;;;10.46;79.08
13407;BME280;6774;48.208;10.766;2023-05-29T02:27:08;95487.19;;;10.40;79.88
13407;BME280;6774;48.208;10.766;2023-05-29T02:29:35;95489.94;;;10.32;80.50
13407;BME280;6774;48.208;10.766;2023-05-29T02:32:04;95487.13;;;10.34;81.64
13407;BME280;6774;48.208;10.766;2023-05-29T02:34:32;95491.22;;;10.36;81.10
13407;BME280;6774;48.208;10.766;2023-05-29T02:37:01;95485.94;;;10.36;81.43
13407;BME280;6774;48.208;10.766;2023-05-29T02:39:30;95485.56;;;10.39;81.17
13407;BME280;6774;48.208;10.766;2023-05-29T02:41:58;95493.22;;;10.34;81.22
13407;BME280;6774;48.208;10.766;2023-05-29T02:44:26;95488.56;;;10.36;81.03
13407;BME280;6774;48.208;10.766;2023-05-29T02:46:53;95486.75;;;10.37;80.87
13407;BME280;6774;48.208;10.766;2023-05-29T02:49:21;95486.66;;;10.30;80.91
13407;BME280;6774;48.208;10.766;2023-05-29T02:51:51;95491.78;;;10.17;81.65
13407;BME280;6774;48.208;10.766;2023-05-29T02:54:24;95490.16;;;10.16;81.40
13407;BME280;6774;48.208;10.766;2023-05-29T02:56:52;95482.84;;;10.18;81.76
13407;BME280;6774;48.208;10.766;2023-05-29T02:59:20;95488.88;;;10.12;82.07
13407;BME280;6774;48.208;10.766;2023-05-29T03:01:49;95487.22;;;10.11;82.88
13407;BME280;6774;48.208;10.766;2023-05-29T03:04:18;95493.13;;;10.13;82.46
13407;BME280;6774;48.208;10.766;2023-05-29T03:06:46;95491.78;;;10.17;82.68
13407;BME280;6774;48.208;10.766;2023-05-29T03:09:14;95496.22;;;10.16;82.61
13407;BME280;6774;48.208;10.766;2023-05-29T03:11:44;95490.78;;;10.18;82.59
13407;BME280;6774;48.208;10.766;2023-05-29T03:14:14;95495.03;;;10.19;82.93
13407;BME280;6774;48.208;10.766;2023-05-29T03:16:43;95499.31;;;10.20;82.51
13407;BME280;6774;48.208;10.766;2023-05-29T03:19:11;95488.75;;;10.20;82.10
13407;BME280;6774;48.208;10.766;2023-05-29T03:21:39;95481.22;;;10.17;82.58
13407;BME280;6774;48.208;10.766;2023-05-29T03:24:07;95492.41;;;10.19;82.38
13407;BME280;6774;48.208;10.766;2023-05-29T03:26:36;95490.16;;;10.16;82.48
13407;BME280;6774;48.208;10.766;2023-05-29T03:29:05;95488.47;;;10.15;82.99
13407;BME280;6774;48.208;10.766;2023-05-29T03:31:33;95486.50;;;10.17;82.64
13407;BME280;6774;48.208;10.766;2023-05-29T03:34:02;95496.22;;;10.16;82.39
13407;BME280;6774;48.208;10.766;2023-05-29T03:36:39;95495.84;;;10.19;82.90
13407;BME280;6774;48.208;10.766;2023-05-29T03:39:07;95487.59;;;10.22;82.55
13407;BME280;6774;48.208;10.766;2023-05-29T03:41:35;95492.31;;;10.27;82.60
13407;BME280;6774;48.208;10.766;2023-05-29T03:44:05;95490.94;;;10.31;82.66
13407;BME280;6774;48.208;10.766;2023-05-29T03:46:33;95494.78;;;10.29;82.24
13407;BME280;6774;48.208;10.766;2023-05-29T03:49:01;95502.13;;;10.33;82.00
13407;BME280;6774;48.208;10.766;2023-05-29T03:51:30;95507.03;;;10.36;82.00
13407;BME280;6774;48.208;10.766;2023-05-29T03:53:58;95500.75;;;10.37;81.89
13407;BME280;6774;48.208;10.766;2023-05-29T03:56:26;95500.84;;;10.44;82.15
13407;BME280;6774;48.208;10.766;2023-05-29T03:58:54;95502.28;;;10.46;82.11
13407;BME280;6774;48.208;10.766;2023-05-29T04:01:24;95500.63;;;10.45;81.97
13407;BME280;6774;48.208;10.766;2023-05-29T04:03:53;95498.63;;;10.47;81.65
13407;BME280;6774;48.208;10.766;2023-05-29T04:06:22;95501.88;;;10.49;81.57
13407;BME280;6774;48.208;10.766;2023-05-29T04:08:50;95500.88;;;10.50;81.63
13407;BME280;6774;48.208;10.766;2023-05-29T04:11:18;95505.19;;;10.51;81.96
13407;BME280;6774;48.208;10.766;2023-05-29T04:13:47;95507.66;;;10.60;81.62
13407;BME280;6774;48.208;10.766;2023-05-29T04:16:15;95502.41;;;10.60;80.99
13407;BME280;6774;48.208;10.766;2023-05-29T04:18:44;95506.31;;;10.64;81.03
13407;BME280;6774;48.208;10.766;2023-05-29T04:21:12;95513.28;;;10.71;80.65
13407;BME280;6774;48.208;10.766;2023-05-29T04:23:40;95518.06;;;10.82;80.83
13407;BME280;6774;48.208;10.766;2023-05-29T04:26:09;95523.03;;;10.92;80.69
13407;BME280;6774;48.208;10.766;2023-05-29T04:28:39;95525.16;;;11.03;80.74
13407;BME280;6774;48.208;10.766;2023-05-29T04:31:06;95533.34;;;11.08;80.81
13407;BME280;6774;48.208;10.766;2023-05-29T04:33:36;95528.75;;;11.17;79.99
13407;BME280;6774;48.208;10.766;2023-05-29T04:36:06;95544.81;;;11.22;79.69
13407;BME280;6774;48.208;10.766;2023-05-29T04:38:37;95549.34;;;11.28;79.51
13407;BME280;6774;48.208;10.766;2023-05-29T04:41:06;95549.78;;;11.32;79.90
13407;BME280;6774;48.208;10.766;2023-05-29T04:43:35;95553.91;;;11.41;80.04
13407;BME280;6774;48.208;10.766;2023-05-29T04:46:05;95544.84;;;11.50;79.93
13407;BME280;6774;48.208;10.766;2023-05-29T04:48:36;95556.91;;;11.59;80.24
13407;BME280;6774;48.208;10.766;2023-05-29T04:51:09;95559.84;;;11.71;80.05
13407;BME280;6774;48.208;10.766;2023-05-29T04:53:38;95559.13;;;11.84;79.99
13407;BME280;6774;48.208;10.766;2023-05-29T04:56:08;95561.84;;;11.97;79.67
13407;BME280;6774;48.208;10.766;2023-05-29T04:58:36;95560.31;;;12.09;79.75
13407;BME280;6774;48.208;10.766;2023-05-29T05:01:04;95552.66;;;12.28;79.91
13407;BME280;6774;48.208;10.766;2023-05-29T05:03:36;95564.28;;;12.33;80.16
13407;BME280;6774;48.208;10.766;2023-05-29T05:06:05;95566.38;;;12.51;80.05
13407;BME280;6774;48.208;10.766;2023-05-29T05:08:37;95564.00;;;12.63;80.11
13407;BME280;6774;48.208;10.766;2023-05-29T05:11:04;95566.09;;;12.80;80.05
13407;BME280;6774;48.208;10.766;2023-05-29T05:13:33;95559.38;;;12.98;80.21
13407;BME280;6774;48.208;10.766;2023-05-29T05:16:01;95557.38;;;13.13;79.33
13407;BME280;6774;48.208;10.766;2023-05-29T05:18:30;95568.03;;;13.26;78.60
13407;BME280;6774;48.208;10.766;2023-05-29T05:21:02;95562.53;;;13.41;77.79
13407;BME280;6774;48.208;10.766;2023-05-29T05:23:33;95563.16;;;13.63;77.26
13407;BME280;6774;48.208;10.766;2023-05-29T05:26:16;95564.97;;;13.82;75.54
13407;BME280;6774;48.208;10.766;2023-05-29T05:28:44;95559.19;;;13.99;75.00
13407;BME280;6774;48.208;10.766;2023-05-29T05:31:11;95564.66;;;14.17;74.06
13407;BME280;6774;48.208;10.766;2023-05-29T05:33:40;95565.25;;;14.32;73.08
13407;BME280;6774;48.208;10.766;2023-05-29T05:36:08;95572.16;;;14.53;72.71
13407;BME280;6774;48.208;10.766;2023-05-29T05:38:38;95563.72;;;14.63;71.82
13407;BME280;6774;48.208;10.766;2023-05-29T05:41:06;95568.78;;;14.77;71.82
13407;BME280;6774;48.208;10.766;2023-05-29T05:43:36;95567.88;;;14.90;70.21
13407;BME280;6774;48.208;10.766;2023-05-29T05:46:13;95564.94;;;15.05;70.09
13407;BME280;6774;48.208;10.766;2023-05-29T05:48:42;95565.72;;;15.12;70.16
13407;BME280;6774;48.208;10.766;2023-05-29T05:51:10;95566.88;;;15.23;70.74
13407;BME280;6774;48.208;10.766;2023-05-29T05:53:39;95568.84;;;15.34;69.49
13407;BME280;6774;48.208;10.766;2023-05-29T05:56:07;95575.53;;;15.43;68.02
13407;BME280;6774;48.208;10.766;2023-05-29T05:58:37;95577.06;;;15.57;69.01
13407;BME280;6774;48.208;10.766;2023-05-29T06:01:08;95576.97;;;15.71;69.47
13407;BME280;6774;48.208;10.766;2023-05-29T06:03:36;95577.91;;;15.83;69.16
13407;BME280;6774;48.208;10.766;2023-05-29T06:06:07;95576.31;;;16.00;68.72
13407;BME280;6774;48.208;10.766;2023-05-29T06:08:37;95584.00;;;16.08;67.37
13407;BME280;6774;48.208;10.766;2023-05-29T06:11:07;95571.91;;;16.12;66.87
13407;BME280;6774;48.208;10.766;2023-05-29T06:13:39;95581.81;;;16.24;66.79
13407;BME280;6774;48.208;10.766;2023-05-29T06:16:16;95585.75;;;16.39;67.29
13407;BME280;6774;48.208;10.766;2023-05-29T06:18:44;95587.44;;;16.52;67.54
13407;BME280;6774;48.208;10.766;2023-05-29T06:21:12;95581.22;;;16.58;65.93
13407;BME280;6774;48.208;10.766;2023-05-29T06:23:47;95584.38;;;16.73;66.71
13407;BME280;6774;48.208;10.766;2023-05-29T06:26:16;95587.81;;;16.92;66.66
13407;BME280;6774;48.208;10.766;2023-05-29T06:28:45;95594.22;;;17.03;66.33
13407;BME280;6774;48.208;10.766;2023-05-29T06:31:13;95591.38;;;17.16;66.37
13407;BME280;6774;48.208;10.766;2023-05-29T06:33:41;95589.56;;;17.28;65.90
13407;BME280;6774;48.208;10.766;2023-05-29T06:36:08;95591.41;;;17.28;64.81
13407;BME280;6774;48.208;10.766;2023-05-29T06:38:37;95595.50;;;17.30;64.85
13407;BME280;6774;48.208;10.766;2023-05-29T06:41:05;95606.53;;;17.46;64.61
13407;BME280;6774;48.208;10.766;2023-05-29T06:43:34;95602.78;;;17.65;64.36
13407;BME280;6774;48.208;10.766;2023-05-29T06:46:10;95607.34;;;17.76;63.83
13407;BME280;6774;48.208;10.766;2023-05-29T06:48:38;95607.44;;;17.81;63.61
13407;BME280;6774;48.208;10.766;2023-05-29T06:51:05;95609.78;;;17.89;63.47
13407;BME280;6774;48.208;10.766;2023-05-29T06:53:41;95604.47;;;18.13;63.18
13407;BME280;6774;48.208;10.766;2023-05-29T06:56:12;95619.00;;;18.29;63.26
13407;BME280;6774;48.208;10.766;2023-05-29T06:58:40;95610.28;;;18.33;62.56
13407;BME280;6774;48.208;10.766;2023-05-29T07:01:09;95612.34;;;18.55;62.73
13407;BME280;6774;48.208;10.766;2023-05-29T07:03:43;95609.91;;;18.65;62.21
13407;BME280;6774;48.208;10.766;2023-05-29T07:06:13;95614.16;;;18.89;62.15
13407;BME280;6774;48.208;10.766;2023-05-29T07:08:41;95616.66;;;19.08;60.98
13407;BME280;6774;48.208;10.766;2023-05-29T07:11:10;95620.09;;;19.20;61.26
13407;BME280;6774;48.208;10.766;2023-05-29T07:13:38;95619.50;;;19.46;62.04
13407;BME280;6774;48.208;10.766;2023-05-29T07:16:07;95618.69;;;19.57;60.66
13407;BME280;6774;48.208;10.766;2023-05-29T07:18:53;95626.97;;;19.73;60.34
13407;BME280;6774;48.208;10.766;2023-05-29T07:21:21;95630.16;;;19.86;59.62
13407;BME280;6774;48.208;10.766;2023-05-29T07:23:49;95622.22;;;20.08;59.44
13407;BME280;6774;48.208;10.766;2023-05-29T07:26:18;95625.53;;;20.15;57.70
13407;BME280;6774;48.208;10.766;2023-05-29T07:28:48;95629.50;;;20.47;58.05
13407;BME280;6774;48.208;10.766;2023-05-29T07:31:17;95627.34;;;20.65;57.68
13407;BME280;6774;48.208;10.766;2023-05-29T07:33:46;95634.50;;;20.77;55.50
13407;BME280;6774;48.208;10.766;2023-05-29T07:36:17;95632.44;;;21.06;56.83
13407;BME280;6774;48.208;10.766;2023-05-29T07:38:47;95640.34;;;21.17;56.43
13407;BME280;6774;48.208;10.766;2023-05-29T07:41:18;95631.81;;;21.42;56.03
13407;BME280;6774;48.208;10.766;2023-05-29T07:43:52;95641.94;;;21.62;55.03
13407;BME280;6774;48.208;10.766;2023-05-29T07:46:22;95635.25;;;21.65;54.55
13407;BME280;6774;48.208;10.766;2023-05-29T07:48:59;95633.97;;;21.72;54.62
13407;BME280;6774;48.208;10.766;2023-05-29T07:51:28;95632.88;;;22.00;54.59
13407;BME280;6774;48.208;10.766;2023-05-29T07:53:57;95644.69;;;22.26;54.05
13407;BME280;6774;48.208;10.766;2023-05-29T07:56:25;95643.00;;;22.15;54.01
13407;BME280;6774;48.208;10.766;2023-05-29T07:58:52;95637.75;;;22.35;52.48
13407;BME280;6774;48.208;10.766;2023-05-29T08:01:21;95652.13;;;22.51;52.70
13407;BME280;6774;48.208;10.766;2023-05-29T08:03:49;95648.69;;;22.61;52.87
13407;BME280;6774;48.208;10.766;2023-05-29T08:06:27;95638.84;;;22.82;52.36
13407;BME280;6774;48.208;10.766;2023-05-29T08:08:58;95640.69;;;22.76;50.89
13407;BME280;6774;48.208;10.766;2023-05-29T08:11:27;95641.28;;;22.83;52.18
13407;BME280;6774;48.208;10.766;2023-05-29T08:13:55;95645.28;;;23.28;53.22
13407;BME280;6774;48.208;10.766;2023-05-29T08:16:23;95638.84;;;23.39;50.94
13407;BME280;6774;48.208;10.766;2023-05-29T08:18:51;95639.94;;;23.43;51.14
13407;BME280;6774;48.208;10.766;2023-05-29T08:21:19;95640.50;;;23.55;50.73
13407;BME280;6774;48.208;10.766;2023-05-29T08:23:48;95642.38;;;23.55;51.08
13407;BME280;6774;48.208;10.766;2023-05-29T08:26:16;95643.00;;;23.82;51.88
13407;BME280;6774;48.208;10.766;2023-05-29T08:28:44;95644.63;;;23.83;52.02
13407;BME280;6774;48.208;10.766;2023-05-29T08:31:12;95643.84;;;24.08;51.60
13407;BME280;6774;48.208;10.766;2023-05-29T08:33:39;95643.88;;;24.44;51.45
13407;BME280;6774;48.208;10.766;2023-05-29T08:36:07;95646.25;;;24.66;51.22
13407;BME280;6774;48.208;10.766;2023-05-29T08:38:35;95647.00;;;24.97;49.69
13407;BME280;6774;48.208;10.766;2023-05-29T08:41:05;95640.19;;;25.20;49.94
13407;BME280;6774;48.208;10.766;2023-05-29T08:43:35;95649.31;;;25.34;48.82
13407;BME280;6774;48.208;10.766;2023-05-29T08:46:03;95644.59;;;25.55;49.36
13407;BME280;6774;48.208;10.766;2023-05-29T08:48:31;95643.94;;;25.84;49.64
13407;BME280;6774;48.208;10.766;2023-05-29T08:51:02;95644.28;;;26.11;47.72
13407;BME280;6774;48.208;10.766;2023-05-29T08:53:31;95651.22;;;26.22;47.13
13407;BME280;6774;48.208;10.766;2023-05-29T08:55:59;95650.91;;;26.29;47.31
13407;BME280;6774;48.208;10.766;2023-05-29T08:58:29;95647.75;;;26.51;45.85
13407;BME280;6774;48.208;10.766;2023-05-29T09:00:57;95654.22;;;26.55;46.00
13407;BME280;6774;48.208;10.766;2023-05-29T09:03:25;95647.69;;;26.61;46.90
13407;BME280;6774;48.208;10.766;2023-05-29T09:05:57;95653.91;;;26.85;46.95
13407;BME280;6774;48.208;10.766;2023-05-29T09:08:26;95639.75;;;26.93;45.61
13407;BME280;6774;48.208;10.766;2023-05-29T09:10:55;95648.31;;;26.77;45.67
13407;BME280;6774;48.208;10.766;2023-05-29T09:13:24;95644.13;;;27.37;46.53
13407;BME280;6774;48.208;10.766;2023-05-29T09:15:57;95646.75;;;27.66;44.66
13407;BME280;6774;48.208;10.766;2023-05-29T09:18:29;95643.09;;;27.95;44.13
13407;BME280;6774;48.208;10.766;2023-05-29T09:20:57;95641.94;;;27.82;44.41
13407;BME280;6774;48.208;10.766;2023-05-29T09:23:28;95647.28;;;27.87;44.99
13407;BME280;6774;48.208;10.766;2023-05-29T09:25:57;95640.47;;;28.09;44.64
13407;BME280;6774;48.208;10.766;2023-05-29T09:28:25;95633.63;;;28.30;44.41
13407;BME280;6774;48.208;10.766;2023-05-29T09:30:54;95640.72;;;28.58;44.04
13407;BME280;6774;48.208;10.766;2023-05-29T09:33:25;95635.78;;;28.93;43.77
13407;BME280;6774;48.208;10.766;2023-05-29T09:35:53;95643.84;;;29.12;42.94
13407;BME280;6774;48.208;10.766;2023-05-29T09:38:21;95642.63;;;29.32;43.27
13407;BME280;6774;48.208;10.766;2023-05-29T09:41:09;95647.28;;;29.17;42.68
13407;BME280;6774;48.208;10.766;2023-05-29T09:43:38;95631.16;;;29.07;42.26
13407;BME280;6774;48.208;10.766;2023-05-29T09:46:07;95645.06;;;28.92;42.37
13407;BME280;6774;48.208;10.766;2023-05-29T09:48:36;95646.53;;;28.98;42.67
13407;BME280;6774;48.208;10.766;2023-05-29T09:51:04;95634.97;;;29.34;42.75
13407;BME280;6774;48.208;10.766;2023-05-29T09:53:32;95642.84;;;29.35;41.70
13407;BME280;6774;48.208;10.766;2023-05-29T09:56:00;95646.47;;;29.58;42.07
13407;BME280;6774;48.208;10.766;2023-05-29T09:58:32;95641.03;;;29.58;41.42
13407;BME280;6774;48.208;10.766;2023-05-29T10:01:02;95641.44;;;29.10;40.53
13407;BME280;6774;48.208;10.766;2023-05-29T10:03:29;95643.59;;;28.81;40.69
13407;BME280;6774;48.208;10.766;2023-05-29T10:06:04;95624.63;;;28.62;38.70
13407;BME280;6774;48.208;10.766;2023-05-29T10:08:35;95629.69;;;28.69;39.08
13407;BME280;6774;48.208;10.766;2023-05-29T10:11:05;95628.47;;;28.61;40.91
13407;BME280;6774;48.208;10.766;2023-05-29T10:13:38;95632.94;;;28.84;40.40
13407;BME280;6774;48.208;10.766;2023-05-29T10:16:08;95626.09;;;28.73;39.77
13407;BME280;6774;48.208;10.766;2023-05-29T10:18:39;95622.38;;;28.37;38.10
13407;BME280;6774;48.208;10.766;2023-05-29T10:21:12;95626.91;;;28.41;37.52
13407;BME280;6774;48.208;10.766;2023-05-29T10:23:43;95622.38;;;28.37;40.22
13407;BME280;6774;48.208;10.766;2023-05-29T10:26:15;95625.97;;;28.32;40.93
13407;BME280;6774;48.208;10.766;2023-05-29T10:28:55;95622.31;;;28.23;39.23
13407;BME280;6774;48.208;10.766;2023-05-29T10:31:28;95625.00;;;27.90;38.75
13407;BME280;6774;48.208;10.766;2023-05-29T10:34:07;95628.75;;;28.27;40.08
13407;BME280;6774;48.208;10.766;2023-05-29T10:36:44;95632.09;;;28.70;39.83
13407;BME280;6774;48.208;10.766;2023-05-29T10:39:14;95630.56;;;29.10;41.23
13407;BME280;6774;48.208;10.766;2023-05-29T10:41:42;95628.97;;;29.87;40.00
13407;BME280;6774;48.208;10.766;2023-05-29T10:44:37;95627.34;;;30.22;38.50
13407;BME280;6774;48.208;10.766;2023-05-29T10:47:06;95626.78;;;30.34;38.15
13407;BME280;6774;48.208;10.766;2023-05-29T10:49:35;95621.81;;;30.36;38.54
13407;BME280;6774;48.208;10.766;2023-05-29T10:52:05;95622.56;;;30.50;37.99
13407;BME280;6774;48.208;10.766;2023-05-29T10:54:41;95621.75;;;30.49;35.63
13407;BME280;6774;48.208;10.766;2023-05-29T10:57:17;95622.47;;;30.10;36.19
13407;BME280;6774;48.208;10.766;2023-05-29T10:59:45;95617.31;;;29.72;37.15
13407;BME280;6774;48.208;10.766;2023-05-29T11:02:17;95614.63;;;29.45;36.85
13407;BME280;6774;48.208;10.766;2023-05-29T11:05:04;95623.09;;;29.30;37.28
13407;BME280;6774;48.208;10.766;2023-05-29T11:07:34;95611.75;;;29.00;38.05
13407;BME280;6774;48.208;10.766;2023-05-29T11:10:12;95619.28;;;28.89;39.11
13407;BME280;6774;48.208;10.766;2023-05-29T11:12:55;95618.63;;;28.79;39.32
13407;BME280;6774;48.208;10.766;2023-05-29T11:15:24;95612.25;;;29.02;38.38
13407;BME280;6774;48.208;10.766;2023-05-29T11:17:51;95607.91;;;29.29;39.64
13407;BME280;6774;48.208;10.766;2023-05-29T11:20:28;95618.78;;;29.56;39.88
13407;BME280;6774;48.208;10.766;2023-05-29T11:23:05;95616.97;;;29.88;39.01
13407;BME280;6774;48.208;10.766;2023-05-29T11:25:36;95612.38;;;29.97;38.32
13407;BME280;6774;48.208;10.766;2023-05-29T11:28:05;95613.88;;;30.03;38.46
13407;BME280;6774;48.208;10.766;2023-05-29T11:30:45;95602.69;;;29.82;37.60
13407;BME280;6774;48.208;10.766;2023-05-29T11:33:23;95608.38;;;29.72;38.16
13407;BME280;6774;48.208;10.766;2023-05-29T11:35:56;95610.03;;;29.82;37.58
13407;BME280;6774;48.208;10.766;2023-05-29T11:38:26;95595.97;;;29.66;38.00
13407;BME280;6774;48.208;10.766;2023-05-29T11:40:54;95612.59;;;29.64;37.49
13407;BME280;6774;48.208;10.766;2023-05-29T11:43:22;95605.81;;;29.76;37.41
13407;BME280;6774;48.208;10.766;2023-05-29T11:45:50;95603.25;;;29.93;37.25
13407;BME280;6774;48.208;10.766;2023-05-29T11:48:18;95604.09;;;29.80;37.19
13407;BME280;6774;48.208;10.766;2023-05-29T11:50:46;95601.00;;;29.72;36.99
13407;BME280;6774;48.208;10.766;2023-05-29T11:53:14;95606.06;;;29.88;37.81
13407;BME280;6774;48.208;10.766;2023-05-29T11:55:43;95611.66;;;30.05;38.03
13407;BME280;6774;48.208;10.766;2023-05-29T11:58:11;95606.22;;;30.05;37.09
13407;BME280;6774;48.208;10.766;2023-05-29T12:00:39;95605.28;;;29.87;37.10
13407;BME280;6774;48.208;10.766;2023-05-29T12:03:08;95598.66;;;29.80;37.18
13407;BME280;6774;48.208;10.766;2023-05-29T12:05:45;95603.16;;;29.48;35.63
13407;BME280;6774;48.208;10.766;2023-05-29T12:08:13;95600.56;;;29.15;36.62
13407;BME280;6774;48.208;10.766;2023-05-29T12:10:49;95597.25;;;29.05;37.88
13407;BME280;6774;48.208;10.766;2023-05-29T12:13:18;95605.22;;;29.01;38.25
13407;BME280;6774;48.208;10.766;2023-05-29T12:15:48;95601.31;;;28.88;38.18
13407;BME280;6774;48.208;10.766;2023-05-29T12:18:17;95588.91;;;29.01;38.61
13407;BME280;6774;48.208;10.766;2023-05-29T12:20:45;95605.59;;;28.95;39.05
13407;BME280;6774;48.208;10.766;2023-05-29T12:23:13;95599.53;;;28.84;38.35
13407;BME280;6774;48.208;10.766;2023-05-29T12:25:40;95606.38;;;28.81;39.70
13407;BME280;6774;48.208;10.766;2023-05-29T12:28:15;95599.50;;;28.56;37.10
13407;BME280;6774;48.208;10.766;2023-05-29T12:30:47;95593.69;;;28.63;37.14
13407;BME280;6774;48.208;10.766;2023-05-29T12:33:29;95601.53;;;28.65;37.79
13407;BME280;6774;48.208;10.766;2023-05-29T12:36:02;95604.50;;;28.49;38.83
13407;BME280;6774;48.208;10.766;2023-05-29T12:38:30;95599.88;;;28.36;39.68
13407;BME280;6774;48.208;10.766;2023-05-29T12:40:58;95599.53;;;28.05;38.11
13407;BME280;6774;48.208;10.766;2023-05-29T12:43:27;95603.97;;;28.15;38.80
13407;BME280;6774;48.208;10.766;2023-05-29T12:45:55;95602.09;;;27.96;40.10
13407;BME280;6774;48.208;10.766;2023-05-29T12:48:26;95596.25;;;28.08;39.17
13407;BME280;6774;48.208;10.766;2023-05-29T12:50:54;95608.59;;;28.14;39.36
13407;BME280;6774;48.208;10.766;2023-05-29T12:53:28;95603.19;;;28.14;38.41
13407;BME280;6774;48.208;10.766;2023-05-29T12:55:56;95610.22;;;28.15;39.69
13407;BME280;6774;48.208;10.766;2023-05-29T12:58:24;95615.44;;;28.12;38.30
13407;BME280;6774;48.208;10.766;2023-05-29T13:00:53;95596.06;;;28.18;38.30
13407;BME280;6774;48.208;10.766;2023-05-29T13:03:23;95600.53;;;28.28;38.32
13407;BME280;6774;48.208;10.766;2023-05-29T13:05:51;95599.19;;;28.25;38.41
13407;BME280;6774;48.208;10.766;2023-05-29T13:08:20;95604.31;;;27.75;37.09
13407;BME280;6774;48.208;10.766;2023-05-29T13:10:48;95599.81;;;27.71;38.94
13407;BME280;6774;48.208;10.766;2023-05-29T13:13:16;95599.66;;;27.81;40.02
13407;BME280;6774;48.208;10.766;2023-05-29T13:15:44;95595.38;;;27.75;38.15